createdAt,value
2023-02-11T00:00:42.202Z,69.10
2023-02-11T00:03:09.863Z,69.10
2023-02-11T00:05:36.860Z,69.00
2023-02-11T00:08:04.106Z,69.00
2023-02-11T00:10:31.016Z,69.00
2023-02-11T00:12:58.001Z,69.10
2023-02-11T00:15:24.916Z,69.10
2023-02-11T00:17:51.777Z,69.10
2023-02-11T00:20:18.725Z,69.20
2023-02-11T00:22:45.773Z,69.10
2023-02-11T00:25:12.831Z,69.10
2023-02-11T00:27:39.867Z,69.10
2023-02-11T00:30:07.339Z,69.10
2023-02-11T00:32:34.374Z,69.10
2023-02-11T00:35:01.423Z,69.10
2023-02-11T00:37:37.379Z,69.00
2023-02-11T00:40:06.836Z,69.00
2023-02-11T00:42:35.718Z,69.00
2023-02-11T00:45:02.663Z,69.20
2023-02-11T00:47:29.657Z,69.30
2023-02-11T00:49:56.579Z,69.30
2023-02-11T00:52:23.524Z,69.30
2023-02-11T00:54:50.450Z,69.20
2023-02-11T00:57:17.314Z,69.40
2023-02-11T00:59:44.195Z,69.40
2023-02-11T01:02:11.108Z,69.50
2023-02-11T01:04:38.075Z,69.40
2023-02-11T01:07:04.991Z,69.30
2023-02-11T01:09:31.861Z,69.30
2023-02-11T01:11:58.968Z,69.30
2023-02-11T01:14:27.347Z,69.30
2023-02-11T01:16:54.432Z,69.40
2023-02-11T01:19:21.397Z,69.50
2023-02-11T01:21:48.325Z,69.30
2023-02-11T01:24:15.312Z,69.40
2023-02-11T01:26:42.327Z,69.40
2023-02-11T01:29:09.513Z,69.30
2023-02-11T01:31:36.651Z,69.30
2023-02-11T01:34:03.635Z,69.40
2023-02-11T01:36:30.575Z,69.50
2023-02-11T01:38:57.565Z,69.30
2023-02-11T01:41:24.560Z,69.30
2023-02-11T01:43:51.491Z,69.40
2023-02-11T01:46:29.979Z,69.30
2023-02-11T01:49:18.512Z,69.30
2023-02-11T01:51:50.642Z,69.40
2023-02-11T01:54:40.154Z,69.40
2023-02-11T01:57:23.235Z,69.50
2023-02-11T02:00:01.441Z,69.50
2023-02-11T02:03:00.880Z,69.50
2023-02-11T02:05:30.862Z,69.60
2023-02-11T02:08:29.591Z,69.70
2023-02-11T02:10:58.549Z,69.70
2023-02-11T02:13:26.951Z,69.70
2023-02-11T02:15:56.729Z,69.80
2023-02-11T02:18:45.281Z,69.90
2023-02-11T02:21:30.766Z,69.90
2023-02-11T02:24:19.625Z,69.90
2023-02-11T02:27:26.091Z,69.90
2023-02-11T02:30:11.543Z,69.90
2023-02-11T02:33:05.809Z,69.90
2023-02-11T02:36:07.305Z,70.10
2023-02-11T02:38:40.951Z,70.20
2023-02-11T02:41:17.804Z,70.30
2023-02-11T02:43:49.193Z,70.20
2023-02-11T02:46:20.903Z,70.20
2023-02-11T02:48:52.845Z,70.30
2023-02-11T02:51:56.872Z,70.10
2023-02-11T02:54:33.348Z,70.00
2023-02-11T02:57:12.142Z,69.90
2023-02-11T02:59:57.997Z,70.10
2023-02-11T03:02:43.989Z,70.00
2023-02-11T03:05:22.379Z,70.10
2023-02-11T03:07:58.841Z,70.10
2023-02-11T03:10:30.474Z,70.80
2023-02-11T03:12:58.217Z,70.10
2023-02-11T03:15:28.427Z,70.10
2023-02-11T03:17:59.086Z,70.10
2023-02-11T03:20:30.492Z,70.10
2023-02-11T03:23:03.340Z,70.10
2023-02-11T03:25:36.469Z,70.10
2023-02-11T03:28:16.090Z,70.20
2023-02-11T03:30:52.447Z,70.20
2023-02-11T03:33:27.464Z,70.30
2023-02-11T03:36:04.419Z,70.30
2023-02-11T03:38:36.790Z,70.40
2023-02-11T03:41:07.785Z,70.40
2023-02-11T03:43:40.577Z,70.40
2023-02-11T03:46:09.780Z,70.40
2023-02-11T03:48:44.880Z,70.50
2023-02-11T03:51:14.188Z,70.50
2023-02-11T03:53:44.719Z,70.60
2023-02-11T03:56:17.017Z,70.60
2023-02-11T03:58:47.950Z,70.60
2023-02-11T04:01:15.028Z,70.60
2023-02-11T04:03:42.063Z,70.90
2023-02-11T04:06:09.263Z,70.90
2023-02-11T04:08:36.216Z,70.90
2023-02-11T04:11:03.223Z,71.00
2023-02-11T04:13:30.401Z,71.10
2023-02-11T04:15:57.412Z,71.10
2023-02-11T04:18:24.541Z,71.10
2023-02-11T04:20:51.510Z,71.20
2023-02-11T04:23:18.399Z,71.30
2023-02-11T04:25:45.355Z,71.20
2023-02-11T04:28:12.256Z,71.20
2023-02-11T04:30:39.204Z,71.20
2023-02-11T04:33:06.171Z,71.20
2023-02-11T04:35:33.339Z,71.20
2023-02-11T04:38:00.257Z,71.30
2023-02-11T04:40:27.313Z,71.20
2023-02-11T04:42:54.260Z,71.20
2023-02-11T04:45:21.301Z,71.10
2023-02-11T04:47:48.290Z,71.20
2023-02-11T04:50:15.340Z,71.10
2023-02-11T04:52:42.239Z,71.20
2023-02-11T04:55:09.239Z,71.30
2023-02-11T04:57:36.282Z,71.20
2023-02-11T05:00:03.961Z,71.30
2023-02-11T05:02:30.935Z,71.30
2023-02-11T05:04:57.828Z,71.30
2023-02-11T05:07:24.927Z,71.50
2023-02-11T05:09:51.781Z,71.50
2023-02-11T05:12:18.766Z,71.40
2023-02-11T05:14:45.684Z,71.30
2023-02-11T05:17:12.560Z,71.30
2023-02-11T05:19:39.405Z,71.30
2023-02-11T05:22:06.247Z,71.20
2023-02-11T05:24:33.267Z,71.10
2023-02-11T05:27:00.658Z,71.30
2023-02-11T05:29:28.092Z,71.10
2023-02-11T05:31:55.019Z,71.20
2023-02-11T05:34:21.898Z,71.20
2023-02-11T05:36:48.720Z,71.40
2023-02-11T05:39:15.738Z,71.40
2023-02-11T05:41:42.717Z,71.30
2023-02-11T05:44:10.126Z,71.40
2023-02-11T05:46:37.037Z,71.40
2023-02-11T05:49:03.988Z,71.30
2023-02-11T05:51:30.856Z,71.30
2023-02-11T05:53:57.804Z,71.40
2023-02-11T05:56:24.620Z,71.50
2023-02-11T05:58:51.484Z,71.60
2023-02-11T06:01:18.382Z,71.60
2023-02-11T06:03:45.377Z,71.60
2023-02-11T06:06:12.866Z,71.70
2023-02-11T06:08:40.249Z,71.70
2023-02-11T06:11:07.406Z,71.80
2023-02-11T06:13:34.805Z,71.90
2023-02-11T06:16:03.335Z,71.90
2023-02-11T06:18:30.572Z,71.90
2023-02-11T06:20:57.570Z,71.80
2023-02-11T06:23:24.453Z,71.80
2023-02-11T06:25:53.002Z,71.70
2023-02-11T06:28:20.178Z,71.70
2023-02-11T06:30:47.181Z,71.70
2023-02-11T06:33:14.143Z,71.80
2023-02-11T06:35:41.102Z,71.80
2023-02-11T06:38:08.052Z,71.80
2023-02-11T06:40:35.073Z,71.70
2023-02-11T06:43:02.036Z,71.70
2023-02-11T06:45:29.016Z,71.70
2023-02-11T06:47:55.963Z,71.80
2023-02-11T06:50:22.837Z,72.60
2023-02-11T06:52:49.816Z,71.80
2023-02-11T06:55:16.864Z,71.80
2023-02-11T06:57:43.790Z,71.70
2023-02-11T07:00:11.276Z,71.70
2023-02-11T07:02:38.448Z,71.70
2023-02-11T07:05:07.578Z,71.50
2023-02-11T07:07:34.678Z,71.60
2023-02-11T07:10:04.075Z,71.60
2023-02-11T07:12:31.942Z,71.50
2023-02-11T07:14:58.909Z,71.50
2023-02-11T07:17:25.731Z,71.60
2023-02-11T07:19:52.724Z,71.70
2023-02-11T07:22:19.783Z,71.90
2023-02-11T07:24:46.693Z,71.90
2023-02-11T07:27:13.548Z,71.90
2023-02-11T07:29:42.350Z,72.00
2023-02-11T07:32:09.398Z,72.10
2023-02-11T07:34:36.781Z,72.10
2023-02-11T07:37:03.687Z,72.10
2023-02-11T07:39:30.624Z,72.20
2023-02-11T07:41:57.644Z,72.30
2023-02-11T07:44:24.517Z,72.20
2023-02-11T07:46:51.580Z,72.20
2023-02-11T07:49:18.831Z,72.10
2023-02-11T07:51:46.047Z,72.10
2023-02-11T07:54:12.917Z,72.10
2023-02-11T07:56:39.923Z,72.30
2023-02-11T07:59:07.165Z,72.20
2023-02-11T08:01:34.033Z,72.30
2023-02-11T08:04:02.105Z,72.30
2023-02-11T08:06:33.037Z,72.50
2023-02-11T08:09:05.727Z,72.40
2023-02-11T08:11:32.939Z,72.40
2023-02-11T08:13:59.892Z,72.50
2023-02-11T08:16:35.300Z,72.50
2023-02-11T08:19:10.938Z,72.60
2023-02-11T08:21:39.346Z,72.60
2023-02-11T08:24:06.976Z,72.60
2023-02-11T08:26:35.253Z,72.60
2023-02-11T08:29:07.777Z,72.80
2023-02-11T08:31:37.685Z,72.80
2023-02-11T08:34:05.492Z,72.80
2023-02-11T08:36:35.574Z,72.70
2023-02-11T08:39:18.128Z,72.70
2023-02-11T08:41:48.913Z,72.70
2023-02-11T08:44:17.071Z,72.70
2023-02-11T08:46:43.967Z,72.60
2023-02-11T08:49:10.918Z,72.50
2023-02-11T08:51:37.762Z,72.50
2023-02-11T08:54:06.164Z,72.50
2023-02-11T08:56:33.697Z,72.60
2023-02-11T08:59:00.813Z,72.60
2023-02-11T09:01:30.978Z,72.70
2023-02-11T09:03:59.273Z,72.80
2023-02-11T09:06:27.174Z,72.90
2023-02-11T09:08:56.024Z,72.90
2023-02-11T09:11:27.742Z,72.90
2023-02-11T09:13:54.860Z,72.70
2023-02-11T09:16:25.207Z,72.80
2023-02-11T09:18:52.749Z,72.80
2023-02-11T09:21:20.406Z,72.80
2023-02-11T09:23:47.903Z,72.90
2023-02-11T09:26:17.466Z,72.90
2023-02-11T09:28:44.427Z,72.90
2023-02-11T09:31:14.594Z,73.00
2023-02-11T09:33:48.054Z,73.10
2023-02-11T09:36:30.041Z,73.00
2023-02-11T09:38:58.983Z,73.10
2023-02-11T09:41:44.459Z,73.30
2023-02-11T09:44:19.972Z,73.30
2023-02-11T09:46:53.851Z,73.30
2023-02-11T09:49:26.542Z,73.50
2023-02-11T09:52:03.225Z,73.40
2023-02-11T09:55:02.001Z,73.50
2023-02-11T09:57:34.552Z,73.50
2023-02-11T10:00:15.773Z,73.50
2023-02-11T10:03:05.269Z,73.50
2023-02-11T10:05:44.072Z,73.70
2023-02-11T10:08:22.682Z,73.60
2023-02-11T10:10:59.962Z,73.60
2023-02-11T10:13:52.400Z,73.50
2023-02-11T10:16:30.217Z,73.60
2023-02-11T10:19:05.303Z,73.60
2023-02-11T10:21:50.631Z,73.50
2023-02-11T10:24:18.384Z,73.70
2023-02-11T10:26:46.070Z,73.60
2023-02-11T10:29:38.485Z,73.70
2023-02-11T10:32:39.645Z,73.70
2023-02-11T10:35:15.615Z,73.80
2023-02-11T10:37:44.473Z,73.80
2023-02-11T10:40:20.685Z,73.80
2023-02-11T10:42:52.462Z,73.80
2023-02-11T10:45:36.255Z,73.90
2023-02-11T10:48:26.931Z,74.00
2023-02-11T10:51:14.715Z,74.10
2023-02-11T10:53:43.153Z,74.20
2023-02-11T10:56:14.904Z,74.20
2023-02-11T10:58:45.766Z,74.20
2023-02-11T11:01:24.417Z,74.40
2023-02-11T11:03:52.961Z,74.40
2023-02-11T11:06:31.980Z,74.30
2023-02-11T11:08:59.123Z,74.30
2023-02-11T11:11:27.352Z,74.40
2023-02-11T11:13:58.325Z,74.30
2023-02-11T11:16:36.002Z,74.40
2023-02-11T11:19:08.782Z,74.40
2023-02-11T11:21:47.157Z,74.40
2023-02-11T11:24:20.474Z,74.30
2023-02-11T11:26:53.986Z,74.30
2023-02-11T11:29:27.788Z,74.30
2023-02-11T11:32:01.407Z,74.20
2023-02-11T11:34:38.871Z,74.10
2023-02-11T11:37:33.751Z,74.00
2023-02-11T11:40:11.414Z,74.20
2023-02-11T11:42:39.354Z,74.30
2023-02-11T11:45:26.113Z,74.30
2023-02-11T11:47:57.960Z,74.50
2023-02-11T11:50:44.942Z,74.20
2023-02-11T11:53:23.740Z,74.20
2023-02-11T11:56:04.367Z,74.20
2023-02-11T11:58:32.272Z,74.20
2023-02-11T12:01:20.860Z,74.20
2023-02-11T12:04:10.706Z,74.20
2023-02-11T12:06:58.947Z,74.20
2023-02-11T12:09:37.667Z,74.20
2023-02-11T12:12:16.652Z,74.30
2023-02-11T12:14:58.435Z,74.40
2023-02-11T12:17:46.655Z,74.50
2023-02-11T12:20:18.121Z,74.50
2023-02-11T12:23:17.703Z,74.50
2023-02-11T12:25:49.582Z,74.60
2023-02-11T12:28:22.504Z,74.60
2023-02-11T12:30:52.714Z,74.50
2023-02-11T12:33:44.837Z,74.50
2023-02-11T12:36:32.726Z,74.50
2023-02-11T12:39:41.263Z,74.70
2023-02-11T12:42:45.901Z,74.60
2023-02-11T12:45:13.101Z,74.60
2023-02-11T12:47:53.052Z,74.60
2023-02-11T12:50:33.820Z,74.60
2023-02-11T12:53:06.893Z,74.40
2023-02-11T12:55:45.882Z,74.60
2023-02-11T12:58:18.428Z,74.70
2023-02-11T13:01:04.569Z,74.70
2023-02-11T13:03:43.323Z,74.60
2023-02-11T13:06:20.442Z,74.60
2023-02-11T13:08:48.684Z,74.60
2023-02-11T13:11:24.150Z,74.60
2023-02-11T13:14:15.254Z,74.60
2023-02-11T13:16:45.475Z,74.60
2023-02-11T13:19:15.230Z,74.60
2023-02-11T13:21:55.742Z,74.60
2023-02-11T13:25:02.171Z,74.60
2023-02-11T13:27:38.016Z,74.80
2023-02-11T13:30:24.981Z,74.90
2023-02-11T13:32:54.744Z,74.90
2023-02-11T13:35:29.616Z,74.90
2023-02-11T13:37:57.899Z,74.90
2023-02-11T13:40:37.936Z,74.80
2023-02-11T13:43:07.156Z,74.80
2023-02-11T13:45:43.449Z,74.80
2023-02-11T13:48:25.356Z,74.90
2023-02-11T13:50:56.513Z,74.80
2023-02-11T13:53:24.348Z,74.80
2023-02-11T13:56:04.192Z,74.90
2023-02-11T13:58:31.075Z,74.80
2023-02-11T14:00:58.524Z,74.60
2023-02-11T14:03:56.204Z,74.60
2023-02-11T14:06:47.338Z,74.60
2023-02-11T14:09:14.182Z,74.40
2023-02-11T14:11:48.579Z,74.30
2023-02-11T14:14:36.133Z,74.40
2023-02-11T14:17:09.300Z,74.40
2023-02-11T14:19:41.881Z,74.50
2023-02-11T14:22:15.214Z,74.50
2023-02-11T14:24:55.361Z,74.40
2023-02-11T14:28:05.333Z,74.20
2023-02-11T14:30:56.377Z,74.00
2023-02-11T14:33:23.412Z,73.90
2023-02-11T14:35:53.105Z,73.90
2023-02-11T14:38:28.147Z,73.90
2023-02-11T14:41:27.312Z,74.00
2023-02-11T14:43:58.560Z,73.90
2023-02-11T14:46:29.939Z,73.90
2023-02-11T14:49:01.408Z,73.90
2023-02-11T14:51:38.736Z,74.00
2023-02-11T14:54:25.502Z,74.00
2023-02-11T14:57:13.744Z,74.10
2023-02-11T14:59:55.123Z,74.10
2023-02-11T15:02:30.529Z,74.20
2023-02-11T15:05:16.361Z,74.30
2023-02-11T15:07:46.368Z,74.20
2023-02-11T15:10:26.552Z,74.20
2023-02-11T15:12:54.171Z,74.10
2023-02-11T15:15:21.714Z,74.10
2023-02-11T15:17:48.697Z,74.00
2023-02-11T15:20:42.058Z,74.00
2023-02-11T15:23:20.187Z,74.00
2023-02-11T15:25:52.846Z,74.00
2023-02-11T15:28:31.061Z,74.00
2023-02-11T15:31:03.888Z,74.00
2023-02-11T15:33:32.485Z,74.00
2023-02-11T15:36:00.815Z,74.00
2023-02-11T15:38:29.893Z,74.00
2023-02-11T15:41:02.870Z,73.90
2023-02-11T15:43:47.991Z,73.80
2023-02-11T15:46:20.689Z,73.90
2023-02-11T15:48:53.262Z,73.90
2023-02-11T15:51:29.578Z,73.80
2023-02-11T15:54:02.601Z,73.70
2023-02-11T15:56:37.659Z,73.70
2023-02-11T15:59:15.289Z,74.60
2023-02-11T16:01:42.702Z,73.90
2023-02-11T16:04:18.490Z,73.90
2023-02-11T16:06:48.180Z,74.00
2023-02-11T16:09:15.201Z,74.00
2023-02-11T16:11:48.442Z,73.80
2023-02-11T16:14:27.535Z,73.80
2023-02-11T16:16:58.876Z,73.90
2023-02-11T16:19:27.052Z,73.70
2023-02-11T16:21:56.518Z,73.70
2023-02-11T16:24:29.581Z,73.60
2023-02-11T16:27:03.011Z,73.60
2023-02-11T16:29:32.660Z,73.60
2023-02-11T16:32:29.694Z,73.60
2023-02-11T16:34:59.408Z,73.50
2023-02-11T16:37:27.213Z,73.50
2023-02-11T16:39:54.994Z,73.50
2023-02-11T16:42:21.911Z,73.60
2023-02-11T16:44:48.838Z,73.60
2023-02-11T16:47:24.446Z,73.50
2023-02-11T16:49:51.459Z,73.60
2023-02-11T16:52:20.252Z,73.50
2023-02-11T16:54:47.208Z,73.70
2023-02-11T16:57:16.233Z,73.60
2023-02-11T16:59:43.380Z,73.60
2023-02-11T17:02:26.626Z,73.70
2023-02-11T17:04:55.220Z,73.70
2023-02-11T17:07:22.482Z,73.80
2023-02-11T17:09:49.519Z,73.80
2023-02-11T17:12:16.368Z,73.80
2023-02-11T17:14:43.246Z,73.80
2023-02-11T17:17:10.866Z,73.70
2023-02-11T17:19:38.611Z,73.70
2023-02-11T17:22:06.229Z,73.70
2023-02-11T17:24:33.098Z,73.80
2023-02-11T17:27:00.003Z,73.80
2023-02-11T17:29:27.120Z,73.90
2023-02-11T17:31:54.363Z,73.80
2023-02-11T17:34:22.794Z,73.90
2023-02-11T17:36:49.819Z,73.90
2023-02-11T17:39:16.952Z,73.90
2023-02-11T17:41:43.922Z,73.90
2023-02-11T17:44:16.534Z,73.80
2023-02-11T17:46:44.004Z,73.90
2023-02-11T17:49:12.281Z,73.80
2023-02-11T17:51:39.963Z,73.90
2023-02-11T17:54:13.449Z,74.60
2023-02-11T17:56:40.914Z,73.80
2023-02-11T17:59:09.504Z,73.80
2023-02-11T18:01:38.010Z,73.90
2023-02-11T18:04:06.088Z,73.90
2023-02-11T18:06:33.994Z,73.80
2023-02-11T18:09:04.154Z,73.70
2023-02-11T18:11:33.733Z,73.80
2023-02-11T18:14:02.237Z,73.80
2023-02-11T18:16:30.476Z,73.80
2023-02-11T18:18:58.620Z,73.80
2023-02-11T18:21:25.727Z,73.80
2023-02-11T18:23:53.347Z,73.90
2023-02-11T18:26:21.381Z,73.90
2023-02-11T18:28:48.400Z,73.90
2023-02-11T18:31:15.690Z,73.90
2023-02-11T18:33:43.095Z,73.80
2023-02-11T18:36:12.922Z,73.80
2023-02-11T18:38:40.458Z,73.70
2023-02-11T18:41:08.238Z,73.70
2023-02-11T18:43:35.242Z,73.80
2023-02-11T18:46:07.246Z,73.70
2023-02-11T18:48:34.261Z,73.80
2023-02-11T18:51:01.176Z,73.80
2023-02-11T18:53:28.111Z,73.80
2023-02-11T18:55:55.356Z,73.70
2023-02-11T18:58:22.494Z,73.70
2023-02-11T19:00:50.221Z,73.60
2023-02-11T19:03:17.316Z,73.50
2023-02-11T19:05:49.056Z,73.50
2023-02-11T19:08:17.301Z,73.50
2023-02-11T19:10:47.214Z,73.70
2023-02-11T19:13:14.526Z,73.70
2023-02-11T19:15:45.404Z,73.70
2023-02-11T19:18:13.814Z,73.90
2023-02-11T19:20:44.630Z,73.90
2023-02-11T19:23:11.763Z,73.80
2023-02-11T19:25:45.878Z,73.80
2023-02-11T19:28:13.285Z,73.70
2023-02-11T19:30:40.440Z,73.80
2023-02-11T19:33:10.070Z,73.90
2023-02-11T19:35:37.218Z,73.70
2023-02-11T19:38:05.065Z,73.80
2023-02-11T19:40:32.879Z,73.90
2023-02-11T19:42:59.929Z,73.90
2023-02-11T19:45:27.073Z,74.00
2023-02-11T19:47:57.454Z,73.80
2023-02-11T19:50:24.890Z,73.90
2023-02-11T19:52:51.939Z,73.90
2023-02-11T19:55:19.156Z,74.00
2023-02-11T19:57:46.401Z,74.00
2023-02-11T20:00:13.939Z,73.90
2023-02-11T20:02:41.153Z,73.90
2023-02-11T20:05:08.519Z,73.90
2023-02-11T20:07:35.880Z,74.00
2023-02-11T20:10:03.330Z,74.00
2023-02-11T20:12:30.374Z,74.00
2023-02-11T20:14:57.309Z,73.90
2023-02-11T20:17:24.322Z,73.80
2023-02-11T20:19:51.329Z,73.90
2023-02-11T20:22:18.364Z,73.90
2023-02-11T20:24:45.446Z,73.90
2023-02-11T20:27:13.033Z,73.80
2023-02-11T20:29:40.334Z,73.80
2023-02-11T20:32:08.242Z,73.70
2023-02-11T20:34:35.277Z,73.70
2023-02-11T20:37:04.104Z,73.70
2023-02-11T20:39:31.056Z,73.70
2023-02-11T20:41:58.264Z,73.90
2023-02-11T20:44:25.380Z,73.80
2023-02-11T20:46:54.124Z,73.80
2023-02-11T20:49:24.728Z,73.80
2023-02-11T20:51:53.798Z,73.70
2023-02-11T20:54:21.709Z,73.70
2023-02-11T20:56:51.152Z,73.70
2023-02-11T20:59:19.587Z,73.70
2023-02-11T21:01:49.638Z,73.80
2023-02-11T21:04:26.085Z,73.80
2023-02-11T21:06:57.628Z,73.90
2023-02-11T21:09:27.041Z,73.90
2023-02-11T21:11:54.778Z,73.90
2023-02-11T21:14:23.283Z,73.70
2023-02-11T21:16:51.003Z,73.80
2023-02-11T21:19:18.083Z,73.70
2023-02-11T21:21:45.447Z,73.80
2023-02-11T21:24:13.057Z,73.70
2023-02-11T21:26:40.192Z,73.80
2023-02-11T21:29:08.647Z,73.70
2023-02-11T21:31:36.577Z,73.60
2023-02-11T21:34:04.926Z,73.70
2023-02-11T21:36:32.024Z,73.70
2023-02-11T21:39:00.152Z,73.60
2023-02-11T21:41:27.477Z,73.60
2023-02-11T21:43:54.705Z,73.50
2023-02-11T21:46:22.487Z,74.20
2023-02-11T21:48:50.427Z,73.40
2023-02-11T21:51:20.558Z,73.40
2023-02-11T21:53:48.269Z,73.50
2023-02-11T21:56:17.834Z,73.50
2023-02-11T21:58:46.105Z,73.50
2023-02-11T22:01:18.126Z,73.50
2023-02-11T22:03:46.350Z,73.50
2023-02-11T22:06:15.899Z,73.60
2023-02-11T22:08:43.282Z,73.70
2023-02-11T22:11:12.589Z,73.70
2023-02-11T22:13:40.527Z,73.70
2023-02-11T22:16:11.983Z,73.80
2023-02-11T22:18:40.144Z,73.70
2023-02-11T22:21:10.540Z,73.70
2023-02-11T22:23:38.670Z,73.60
2023-02-11T22:26:08.658Z,73.70
2023-02-11T22:28:38.850Z,73.60
2023-02-11T22:31:06.182Z,73.60
2023-02-11T22:33:33.895Z,73.70
2023-02-11T22:36:06.528Z,73.70
2023-02-11T22:38:33.941Z,73.60
2023-02-11T22:41:06.770Z,73.50
2023-02-11T22:43:33.934Z,73.50
2023-02-11T22:46:02.645Z,73.40
2023-02-11T22:48:29.849Z,73.40
2023-02-11T22:50:57.050Z,73.40
2023-02-11T22:53:25.572Z,73.20
2023-02-11T22:55:52.902Z,73.10
2023-02-11T22:58:22.203Z,73.20
2023-02-11T23:00:49.182Z,73.10
2023-02-11T23:03:16.138Z,73.00
2023-02-11T23:05:43.416Z,72.90
2023-02-11T23:08:12.121Z,72.90
2023-02-11T23:10:40.229Z,72.90
2023-02-11T23:13:10.057Z,72.80
2023-02-11T23:15:41.775Z,72.70
2023-02-11T23:18:09.784Z,72.60
2023-02-11T23:20:38.526Z,72.40
2023-02-11T23:23:05.964Z,72.40
2023-02-11T23:25:33.359Z,72.40
2023-02-11T23:28:01.031Z,72.30
2023-02-11T23:30:29.194Z,72.30
2023-02-11T23:32:56.211Z,72.10
2023-02-11T23:35:23.292Z,72.10
2023-02-11T23:37:53.807Z,72.10
2023-02-11T23:40:21.548Z,72.00
2023-02-11T23:42:49.165Z,72.00
2023-02-11T23:45:16.175Z,71.90
2023-02-11T23:47:43.218Z,71.90
2023-02-11T23:50:11.693Z,71.80
2023-02-11T23:52:38.693Z,71.80
2023-02-11T23:55:06.093Z,71.80
2023-02-11T23:57:33.774Z,71.80
